Terminal Aerodrome Forecast
Issued by NWS Memphis, TN

Home | Current Version | Previous Version | Text Only | Print | Product List | Glossary On
Versions: 1 2 3 4 5 6 7 8 9 10 11 12 13 14 15 16 17 18 19 20 21 22 23 24 25 26 27 28 29 30 31
683
FTUS44 KMEG 312327
TAFMEM
TAF
KMEM 312327Z 0100/0124 19007KT P6SM SCT050 SCT250
     FM010200 VRB03KT P6SM SCT250
     FM011000 20005KT P6SM BKN040 OVC080
     FM011500 22003KT P6SM VCTS SCT040CB BKN120=

USA.gov is the U.S. government's official web portal to all federal, state and local government web resources and services.